LiveATC.Net - Listen to live air traffic control over the Internet!

Find LiveATC Audio Streams


Airport/ARTCC Code

Frequency Search
(e.g., 124.400, 128.75)
Site-wide search
 


Browse LiveATC Feeds
Top 50 LiveATC Feeds
LiveATC Feed Map
Bad Weather Areas

LiveATC FAQ
Offer LiveATC feed
Contact LiveATC.net
Press Inquiries

LiveATC on iPhone
LiveATC on Android

Windows Phone
Windows 8/10

LiveATC Mobile
(Mobile browser)

ATC Audio Archives
Interesting Recordings

LiveATC Forums

Home Page
About LiveATC.net
Make a Donation
Terms of Use
Privacy Policy

Canadian Air Freqs

AIRMETs/SIGMETs

FAA Airport Status
Nat'l Airspace Status
Arrival Demand Charts


Server Software By:
Icecast.org
Liquidsoap

Select an area of interest:
U.S. Feeds: Class B Airports | Class C Airports | Class D/Other Airports | ARTCC (Centers)
International Feeds: Canada | Europe | Oceania | Asia | South America | North/Central America | Africa
Misc Feeds: HF Feeds
Search by ICAO/IATA airport code:   (e.g., kbos, kjfk, lax, eham, etc.)


Currently Available Live Feeds: 2415
Status Updated: Sun Apr 21 2019 03:05:01 UTC


NOTICE

Unauthorized use prohibited. See LiveATC.net Terms of Service

South America Airport Feeds

 

SABE Gnd/Twr/App (Archives)
Buenos Aires, Argentina

Feed Status: UP
Listen in your browser - HTML5 player(in browser, HTML5)
Click here to listen with your own player(launches your MP3 player)

SABE 210200Z 13005KT 9999 FEW027 BKN200 17/12 Q1016 NOSIG

SABE Flight Activity (Flightaware)

Listeners: 1 out of 925 total

Aerolineas Argentinas Ops: 131.950
Aerolineas Argentinas Ops: 131.100
Aeroparque Ground: 121.900
Aeroparque Tower: 120.600
Aeroparque Tower: 118.250
Aeroparque Tower: 128.850
Aeroparque Tower: 118.850
Aeroparque Tower: 129.300
Air to Air: 123.450
Baires: 125.900
Baires: 125.300
Baires: 124.900
Cordoba South: 126.500
Ezeiza Ground: 121.750
Ezeiza North: 133.350
Ezeiza North: 124.500
Ezeiza North: 125.600
Ezeiza North: 135.500
Ezeiza South: 124.100
Ezeiza South: 125.200
LAN Ops: 131.700

Powered by aeropuertotucuman.blogspot.com

SAEZ Del/Gnd/Twr/App/Radar/Misc (Archives)
Buenos Aires, Argentina

Feed Status: UP
Listen in your browser - HTML5 player(in browser, HTML5)
Click here to listen with your own player(launches your MP3 player)

SAEZ 210300Z VRB02KT CAVOK 10/09 Q1016 NOSIG

SAEZ Flight Activity (Flightaware)

Listeners: 5 out of 925 total

Air to Air: 123.450
Baires TMA Radar: 125.800
Baires TMA Radar: 125.300
Baires TMA Radar: 125.900
Baires TMA Radar: 124.900
Baires TMA Radar: 133.350
Canuelas (CNA) CTAF: 123.000
Emergency/Guard: 121.500
Ezeiza Clearance Delivery: 127.100
Ezeiza CTA Radar North: 134.500
Ezeiza CTA Radar North: 135.500
Ezeiza CTA Radar North: 125.600
Ezeiza CTA Radar South: 125.200
Ezeiza Ground: 126.950
Ezeiza Ground: 121.750
Ezeiza Tower: 118.600
Ezeiza Tower: 118.050
Ezeiza Tower: 120.450
Moron (SADM) Tower: 119.900
Moron (SADM) Tower: 118.500
UNICOM: 123.500

"Only for educational purposes - www.prevacc.org

SANT Tower/Apps (Archives)
Tucuman, Argentina

Feed Status: UP
Listen in your browser - HTML5 player(in browser, HTML5)
Click here to listen with your own player(launches your MP3 player)

SANT 210300Z 00000KT 3000 -RA SCT002 SCT004 OVC050 22/21 Q1014

SANT Flight Activity (Flightaware)

Listeners: 1 out of 925 total

Aeroclub Tucuman: 119.000
Aerolineas Argentinas SOC Salta: 131.100
Aerolineas Argentinas SOC Tucuman: 131.950
Air To Air: 123.450
Andes Lineas Aereas: 132.000
Campo Arenal: 130.950
Catamarca Tower: 118.150
Copa Airlines: 129.400
Cordoba Centro Norte: 125.100
Cordoba Centro Sur: 126.500
Emergency/Guard: 121.500
Lan Argentina Operaciones: 131.700
Lan Peru: 131.300
Salta Tower: 128.850
Santiago del Estero Tower: 118.700
Taca Peru: 126.450
Termas de Rio Hondo: 118.200
Termas de Rio Hondo: 119.850
Tucuman Ground: 121.750
Tucuman Ground: 121.750
Tucuman Tower: 118.350
Tucuman Tower: 119.500

Powered by:

aeropuertotucuman.blogspot.com

SASA Twr/App (Archives)
Salta, Argentina

Feed Status: UP
Listen in your browser - HTML5 player(in browser, HTML5)
Click here to listen with your own player(launches your MP3 player)

SASA 210300Z 32005KT 9999 -DZ SCT010 BKN020 19/18 Q1017

SASA Flight Activity (Flightaware)

Listeners: 3 out of 925 total

Cordoba Approach (North): 125.100
Salta Approach: 124.600
Salta Tower: 126.000
Salta Tower/Ground: 128.850

SAZS Tower/Approach (Archives)
Rio Negro, Argentina

Feed Status: UP
Listen in your browser - HTML5 player(in browser, HTML5)
Click here to listen with your own player(launches your MP3 player)

SAZS 210300Z 18005KT CAVOK 06/M01 Q1019

SAZS Flight Activity (Flightaware)

Listeners: 0 out of 925 total

Bariloche Twr/App: 119.100
Bariloche Twr/App (Aux): 118.650
Chapelco Tower/Approach: 119.600
Comodoro Rivadavia Control: 125.500
Emergency: 121.500
Ezeiza South: 125.200
Puerto Mont Radar North: 121.300
Puerto Mont Radar South: 128.300
Puerto Mont Radio: 126.900


Feed courtesy of: Juan Jose Porta - Bariloche

SBBE Twr/App/SBAZ
Belem, Brazil

Feed Status: DOWN
Offline since: 2019-04-18 20:46:03 UTC

SBBE 210300Z 08006KT 9999 SCT025 SCT100 25/23 Q1012

Amazonica FIR (SBAZ): 126.500
Amazonica FIR (SBAZ): 128.000
Amazonica FIR (SBAZ): 123.950
Amazonica FIR (SBAZ): 126.150
Amazonica FIR (SBAZ): 126.650
Amazonica FIR (SBAZ): 133.700
Belem Approach: 119.050
Belem Approach: 119.500
Belem Tower: 118.700

SBBH ACC-BS 127.0 (Archives)
Belo Horizonte, Brazil

Feed Status: UP
Listen in your browser - HTML5 player(in browser, HTML5)
Click here to listen with your own player(launches your MP3 player)

SBBH 210200Z 00000KT CAVOK 18/16 Q1017

SBBH Flight Activity (Flightaware)

Listeners: 1 out of 925 total

Brasilia ACC-BS (Air Control Center): 127.000

SBBH ACC-BS 127.3 (Archives)
Belo Horizonte, Brazil

Feed Status: UP
Listen in your browser - HTML5 player(in browser, HTML5)
Click here to listen with your own player(launches your MP3 player)

SBBH 210200Z 00000KT CAVOK 18/16 Q1017

SBBH Flight Activity (Flightaware)

Listeners: 1 out of 925 total

Brasilia ACC-BS (Air Control Center): 127.300

SBBH App (Sector 1) (Archives)
Belo Horizonte, Brazil

Feed Status: UP
Listen in your browser - HTML5 player(in browser, HTML5)
Click here to listen with your own player(launches your MP3 player)

SBBH 210200Z 00000KT CAVOK 18/16 Q1017

SBBH Flight Activity (Flightaware)

Listeners: 0 out of 925 total

Belo Horizonte Approach (Sector 1): 129.100

SBBH App (Sector 2) (Archives)
Belo Horizonte, Brazil

Feed Status: UP
Listen in your browser - HTML5 player(in browser, HTML5)
Click here to listen with your own player(launches your MP3 player)

SBBH 210200Z 00000KT CAVOK 18/16 Q1017

SBBH Flight Activity (Flightaware)

Listeners: 1 out of 925 total

Belo Horizonte Approach (Sector 2): 129.400

SBBH App/Dep (Archives)
Belo Horizonte, Brazil

Feed Status: UP
Listen in your browser - HTML5 player(in browser, HTML5)
Click here to listen with your own player(launches your MP3 player)

SBBH 210200Z 00000KT CAVOK 18/16 Q1017

SBBH Flight Activity (Flightaware)

Listeners: 0 out of 925 total

Belo Horizonte Approach: 128.550

SBBI Gnd/Twr
Curitiba, Brazil

Feed Status: DOWN
Offline since: 2019-04-13 17:59:03 UTC

SBBI 210100Z 31002KT CAVOK 21/18 Q1017

Bacacheri Ground: 121.800
Bacacheri Tower: 118.900

SBBV Approach (Archives)
Boa Vista, Brazil

Feed Status: UP
Listen in your browser - HTML5 player(in browser, HTML5)
Click here to listen with your own player(launches your MP3 player)

SBBV 210300Z 09014KT CAVOK 30/20 Q1011

SBBV Flight Activity (Flightaware)

Listeners: 2 out of 925 total

Boa Vista Approach: 120.100

SBBV Tower (Archives)
Boa Vista, Brazil

Feed Status: UP
Listen in your browser - HTML5 player(in browser, HTML5)
Click here to listen with your own player(launches your MP3 player)

SBBV 210300Z 09014KT CAVOK 30/20 Q1011

SBBV Flight Activity (Flightaware)

Listeners: 1 out of 925 total

Boa Vista Tower: 118.100

SBCT Twr/App (Archives)
Curitiba, Brazil

Feed Status: UP
Listen in your browser - HTML5 player(in browser, HTML5)
Click here to listen with your own player(launches your MP3 player)

SBCT 210200Z 28002KT 9999 SCT040 21/17 Q1017

SBCT Flight Activity (Flightaware)

Listeners: 0 out of 925 total

Curitiba Approach: 119.950
Curitiba Tower: 118.150

SBDN Twr/App (Archives)
Presidente Prudente/Sao Paulo, Brazil

Feed Status: UP
Listen in your browser - HTML5 player(in browser, HTML5)
Click here to listen with your own player(launches your MP3 player)

SBDN 210200Z 06003KT 9999 FEW030 25/14 Q1014

SBDN Flight Activity (Flightaware)

Listeners: 0 out of 925 total

Air-to-Air: 123.450
Curitiba Sector 13: 133.595
Prudente Approach: 118.450
Prudente Tower: 125.450

SBEG Tower/App (Archives)
Manaus, Brazil

Feed Status: UP
Listen in your browser - HTML5 player(in browser, HTML5)
Click here to listen with your own player(launches your MP3 player)

SBEG 210300Z 04003KT 9999 VCTS FEW017 FEW025CB SCT100 25/24 Q10 12

SBEG Flight Activity (Flightaware)

Listeners: 2 out of 925 total

Emergency/Guard: 121.500
Manaus Approach : 119.250
Manaus Approach: 120.400
Manaus Approach: 119.700
Manaus Tower: 118.300

SBFI Twr/App/Ctr/Misc (Archives)
Foz do Iguacu, Brazil

Feed Status: UP
Listen in your browser - HTML5 player(in browser, HTML5)
Click here to listen with your own player(launches your MP3 player)

SBFI 210300Z 07004KT 9999 TS FEW010 BKN020 FEW040CB OVC080 21/20 Q1012

SBFI Flight Activity (Flightaware)

Listeners: 1 out of 925 total

Asuncion Center (Paraguay): 126.900
Asuncion Center (Paraguay): 128.400
Curitiba Center: 127.200
Curitiba Center: 125.800
Emergency/Guard: 121.500
Foz do Iguacu Approach/Departure: 120.300
Foz do Iguacu Approach/Departure: 119.150
Foz do Iguacu Tower: 118.800
Guarani Approach (Paraguay): 119.300
Puerto Iguazu - Cataratas Tower (Argentina) : 120.700
Resistencia Center (Argentina): 124.300
UNICOM: 123.450

SBFZ Twr/App/Center (Archives)
Fortaleza, Brazil

Feed Status: UP
Listen in your browser - HTML5 player(in browser, HTML5)
Click here to listen with your own player(launches your MP3 player)

SBFZ 210300Z 19004KT CAVOK 25/24 Q1013

SBFZ Flight Activity (Flightaware)

Listeners: 5 out of 925 total

ACC-RE (Fortaleza Sector): 125.150
ACC-RE (Fortaleza Sector): 126.350
ACC-RE (Fortaleza Sector): 135.250
Fortaleza Approach: 133.000
Fortaleza Tower: 129.000

SBGO Gnd/Twr/App (Archives)
Goiania, Brazil

Feed Status: UP
Listen in your browser - HTML5 player(in browser, HTML5)
Click here to listen with your own player(launches your MP3 player)

SBGO 210300Z 12005KT CAVOK 22/18 Q1017

SBGO Flight Activity (Flightaware)

Listeners: 0 out of 925 total

Anapolis Approach: 119.150
Anapolis Approach: 120.550
Anapolis Approach: 133.000
Anapolis Approach: 129.450
Emergency/Guard: 121.500
Goiania Ground: 121.700
Goiania Tower: 118.700
Goiania Tower: 121.050

SBGR Twr/App/ACC (Archives)
Sao Paulo, Brazil

Feed Status: UP
Listen in your browser - HTML5 player(in browser, HTML5)
Click here to listen with your own player(launches your MP3 player)

SBGR 210300Z 00000KT CAVOK 17/17 Q1017

SBGR Flight Activity (Flightaware)

Listeners: 0 out of 925 total

Brasilia Center: 126.150
Brasilia Center: 134.000
Curitiba Center: 126.500
Guarulhos Tower: 135.200
Marte Tower (SBMT): 118.700
Sao Paulo Departure: 120.450
Sao Paulo Final Approach (Guarulhos): 129.750

Sponsored by: aerocus.com

SBJP Twr/Control/Airlines (Archives)
Joao Pessoa, Brazil

Feed Status: UP
Listen in your browser - HTML5 player(in browser, HTML5)
Click here to listen with your own player(launches your MP3 player)

SBJP 210300Z 28002KT 9999 SCT025 24/24 Q1013

SBJP Flight Activity (Flightaware)

Listeners: 1 out of 925 total

AZUL: 130.900
GOL: 131.225
Joao Pessoa Tower: 118.300
Recife Control: 119.500
TAM: 130.500

SBJU Tower/Center (Archives)
Juazeiro do Norte, Brazil

Feed Status: UP
Listen in your browser - HTML5 player(in browser, HTML5)
Click here to listen with your own player(launches your MP3 player)

SBJU 210200Z 16003KT 9999 BKN020 24/22 Q1017

SBJU Flight Activity (Flightaware)

Listeners: 0 out of 925 total

Pilot-to-Pilot: 123.450
Radio Juazeiro: 131.750
Recife Center: 135.250
Recife Center: 125.150

Sponsored by:

SBLO Twr/App/Center
Londrina, Brazil

Feed Status: DOWN
Offline since: 2019-03-24 01:36:03 UTC

SBLO 210300Z 00000KT CAVOK 25/18 Q1015

Curitiba Center: 128.350
Curitiba Center: 135.100
Curitiba Center: 125.800
Curitiba Center: 126.950
Emergency/Guard: 121.500
Londrina Approach: 129.700
Londrina Tower: 118.400
UNICOM: 123.450

TMA Londrina Blog

SBMG Twr/App/Misc (Archives)
Maringa, Brazil

Feed Status: UP
Listen in your browser - HTML5 player(in browser, HTML5)
Click here to listen with your own player(launches your MP3 player)

SBMG 210100Z 03006KT CAVOK 25/18 Q1013

SBMG Flight Activity (Flightaware)

Listeners: 1 out of 925 total

Air to Air: 123.450
Londrina Approach: 129.700
Maringa Tower: 118.750

SBMK RDO/Center (Archives)
Montes Claros, Brazil

Feed Status: UP
Listen in your browser - HTML5 player(in browser, HTML5)
Click here to listen with your own player(launches your MP3 player)

SBMK Flight Activity (Flightaware)

Listeners: 0 out of 925 total

Brasilia Center (Sector 15): 127.300
Montes Claros RDO: 131.700

SBMQ Tower/App/Center (Archives)
Macapa, Brazil

Feed Status: UP
Listen in your browser - HTML5 player(in browser, HTML5)
Click here to listen with your own player(launches your MP3 player)

SBMQ 210300Z 03007KT 9999 FEW010 26/26 Q1012

SBMQ Flight Activity (Flightaware)

Listeners: 0 out of 925 total

Amazonico Center: 123.950
Amazonico Center: 128.000
Macapa Approach: 119.000
Macapa Tower: 118.000

SBNF Tower (Archives)
Navegantes, Brazil

Feed Status: UP
Listen in your browser - HTML5 player(in browser, HTML5)
Click here to listen with your own player(launches your MP3 player)

SBNF 210300Z 12002KT CAVOK 23/19 Q1012

SBNF Flight Activity (Flightaware)

Listeners: 1 out of 925 total

Navegantes Tower: 118.200

SBPA Gnd/Twr/App (Archives)
Porto Alegre, Brazil

Feed Status: UP
Listen in your browser - HTML5 player(in browser, HTML5)
Click here to listen with your own player(launches your MP3 player)

SBPA 210300Z VRB02KT CAVOK 22/20 Q1011

SBPA Flight Activity (Flightaware)

Listeners: 3 out of 925 total

BACO (Canoas) Ground: 121.700
BACO (Canoas) Tower: 122.800
BACO (Canoas) Tower: 118.500
Emergency/Guard: 121.500
Porto Alegre Approach Sector 2: 119.000
Porto Alegre Approach Sector 1: 120.100
Porto Alegre Approach Sector 3: 120.550
Porto Alegre Approach Sector 4: 128.900
Porto Alegre Center: 126.750
Porto Alegre Center: 127.400
Porto Alegre Center: 135.850
Porto Alegre Center: 128.450
Salgado Filho Ground: 121.900
Salgado Filho Tower: 118.100

NOTE: Feed site maintenance Nov 13-30, 2016

SBPL RDO (Archives)
Petrolina, Brazil

Feed Status: UP
Listen in your browser - HTML5 player(in browser, HTML5)
Click here to listen with your own player(launches your MP3 player)

SBPL 210300Z 29002KT CAVOK 23/19 Q1014

SBPL Flight Activity (Flightaware)

Listeners: 1 out of 925 total

Petrolina RDO: 125.700

Sponsored by PNZSpotter

SBQV AFIS/App (Archives)
Vitoria da Conquista, Brazil

Feed Status: UP
Listen in your browser - HTML5 player(in browser, HTML5)
Click here to listen with your own player(launches your MP3 player)

SBQV 201900Z 16008KT 9999 BKN020 25/20 Q1017

SBQV Flight Activity (Flightaware)

Listeners: 1 out of 925 total

Conquista AFIS: 130.300
Despacho Azul: 131.875
Despacho Passaredo: 132.000

SBRF App 129.60 (Archives)
Recife, Brazil

Feed Status: UP
Listen in your browser - HTML5 player(in browser, HTML5)
Click here to listen with your own player(launches your MP3 player)

SBRF 210300Z 07003KT 9999 SCT020 SCT050 27/23 Q1012

SBRF Flight Activity (Flightaware)

Listeners: 3 out of 925 total

Recife Approach: 129.600

SBRF Ground (Archives)
Recife, Brazil

Feed Status: UP
Listen in your browser - HTML5 player(in browser, HTML5)
Click here to listen with your own player(launches your MP3 player)

SBRF 210300Z 07003KT 9999 SCT020 SCT050 27/23 Q1012

SBRF Flight Activity (Flightaware)

Listeners: 0 out of 925 total

Recife Ground: 121.850

SBRF Recife ACC (Archives)
Recife, Brazil

Feed Status: UP
Listen in your browser - HTML5 player(in browser, HTML5)
Click here to listen with your own player(launches your MP3 player)

SBRF 210300Z 07003KT 9999 SCT020 SCT050 27/23 Q1012

SBRF Flight Activity (Flightaware)

Listeners: 3 out of 925 total

Recife Center: 128.700
Recife Center: 133.650
Recife Center: 134.800

SBRF Tower (Archives)
Recife, Brazil

Feed Status: UP
Listen in your browser - HTML5 player(in browser, HTML5)
Click here to listen with your own player(launches your MP3 player)

SBRF 210300Z 07003KT 9999 SCT020 SCT050 27/23 Q1012

SBRF Flight Activity (Flightaware)

Listeners: 4 out of 925 total

Recife Tower: 125.250
Recife Tower: 118.350
Recife Tower: 118.900

SBRP Tower/Center (Archives)
Ribeirao Preto, Brazil

Feed Status: UP
Listen in your browser - HTML5 player(in browser, HTML5)
Click here to listen with your own player(launches your MP3 player)

SBRP 210300Z 00000KT CAVOK 19/15 Q1016

SBRP Flight Activity (Flightaware)

Listeners: 4 out of 925 total

Leite Lopes Tower: 118.000
Pirassununga Center (North): 119.550

SBSN Twr/App/ACC (Archives)
Santarem, Brazil

Feed Status: UP
Listen in your browser - HTML5 player(in browser, HTML5)
Click here to listen with your own player(launches your MP3 player)

SBSN 210300Z 08012KT 9999 FEW017 BKN100 26/25 Q1012

SBSN Flight Activity (Flightaware)

Listeners: 0 out of 925 total

Brasilia Center/ACC: 123.650
Brasilia Center/ACC: 125.050
Santarem Approach: 119.300
Santarem Tower: 118.100

SBSR AFIS/App/Center (Archives)
Sao Jose do Rio Preto, Brazil

Feed Status: UP
Listen in your browser - HTML5 player(in browser, HTML5)
Click here to listen with your own player(launches your MP3 player)

SBSR 210200Z 12003KT CAVOK 25/15 Q1015

SBSR Flight Activity (Flightaware)

Listeners: 1 out of 925 total

Academia Approach (North Sector): 119.750
Academia Approach (North Sector): 120.400
Brasilia Center: 135.150
Rio Preto Radio AFIS: 130.850

SBTE Twr/App (Archives)
Teresina, Brazil

Feed Status: UP
Listen in your browser - HTML5 player(in browser, HTML5)
Click here to listen with your own player(launches your MP3 player)

SBTE 210300Z 35004KT 9999 SCT010 BKN015 OVC090 26/24 Q1012

SBTE Flight Activity (Flightaware)

Listeners: 0 out of 925 total

Teresina Approach: 119.600
Teresina Tower: 118.800

Sponsored by:

Pistadoiszero

SBRE Recife ACC
Paulo Afonso, Brazil

Feed Status: DOWN
Offline since: 2019-04-21 00:52:03 UTC

Recife Center (ACC): 125.400
Recife Center (ACC): 125.450
Recife Center (ACC): 126.850
Recife Center (ACC): 133.650
Recife Center (ACC): 134.500
Recife Center (ACC): 134.900

SBUF AFIS/Center (Archives)
Paulo Afonso, Brazil

Feed Status: UP
Listen in your browser - HTML5 player(in browser, HTML5)
Click here to listen with your own player(launches your MP3 player)

SBUF 201900Z 21003KT 9999 FEW021 35/17 Q1010

SBUF Flight Activity (Flightaware)

Listeners: 0 out of 925 total

Paulo Afonso Radio: 125.850
Recife Center: 133.650
Recife Center: 134.500
Recife Center: 125.450

SBVT Center/Misc (Archives)
Vitoria, Brazil

Feed Status: UP
Listen in your browser - HTML5 player(in browser, HTML5)
Click here to listen with your own player(launches your MP3 player)

SBVT 210300Z 00000KT 9999 FEW035 SCT080 25/24 Q1014

SBVT Flight Activity (Flightaware)

Listeners: 0 out of 925 total

AZUL Coordination: 130.900
Brasilia Center (Sector S-10): 126.750
Brasilia Center (Sector S-10): 127.300
CHAT Coordination: 123.400
Curitiba Center (Sector S-11): 133.600
Curitiba Center (Sector S-11): 133.400
Emergency/Guard: 121.500
GOL Coordination: 131.225
LIDER Coordination: 130.400
Recife Center (Sector S-14): 124.250
Recife Center (Sector S-14): 126.550
Recife Center (Sector S-15): 134.750
Recife Center (Sector S-15): 126.550
TAM Coordination: 130.500
TRIP Coordination: 131.375

Visit Vitoria Airport Web Site

SBVT Gnd/Twr/App (Archives)
Vitoria, Brazil

Feed Status: UP
Listen in your browser - HTML5 player(in browser, HTML5)
Click here to listen with your own player(launches your MP3 player)

SBVT 210300Z 00000KT 9999 FEW035 SCT080 25/24 Q1014

SBVT Flight Activity (Flightaware)

Listeners: 0 out of 925 total

SBVT Approach: 119.850
SBVT Ground: 121.950
SBVT Tower: 118.100

Visit Vitoria Airport Web Site

SCEL Gnd/Twr/Radar (Archives)
Santiago, Chile

Feed Status: UP
Listen in your browser - HTML5 player(in browser, HTML5)
Click here to listen with your own player(launches your MP3 player)

SCEL 210300Z 17004KT CAVOK 11/08 Q1018 NOSIG

SCEL Flight Activity (Flightaware)

Listeners: 3 out of 925 total

Santiago Authorizations: 121.700
Santiago Control (Lat 3323S North): 128.100
Santiago Control (Lat 3323S South): 126.300
Santiago Ground (Primary): 122.200
Santiago Ground (Secondary): 122.500
Santiago Radar (Arrival, Primary): 129.700
Santiago Radar (Arrival, Secondary): 119.700
Santiago Radar (Arrival, Secondary): 123.800
Santiago Radar (Departure, Primary): 121.100
Santiago Radar (Departure, Secondary): 123.800
Santiago Radar (Information, Primary): 122.400
Santiago Radar (Information, Secondary): 120.800
Santiago Radar (Information, Secondary): 123.800
Santiago Tower (Primary): 118.100
Santiago Tower (Secondary): 118.350
SCTB Tobalaba Tower: 118.700

SCJO Gnd/Twr
Osorno, Chile

Feed Status: DOWN
Offline since: 2019-03-05 19:11:02 UTC

SCJO 202100Z 21004KT 9999 FEW030 14/07 Q1019

Osorno Ground: 121.700
Osorno Tower: 118.900

Sponsored by: Serticom

SEGU App/Dep (Archives)
Guayaquil, Ecuador

Feed Status: UP
Listen in your browser - HTML5 player(in browser, HTML5)
Click here to listen with your own player(launches your MP3 player)

SEGU 210300Z 23009KT 210V270 9999 FEW030 SCT100 28/22 Q1011 NOSIG RMK A2988

SEGU Flight Activity (Flightaware)

Listeners: 0 out of 925 total

Guayaquil Approach: 120.700

SEGU Gnd/Twr (Archives)
Guayaquil, Ecuador

Feed Status: UP
Listen in your browser - HTML5 player(in browser, HTML5)
Click here to listen with your own player(launches your MP3 player)

SEGU 210300Z 23009KT 210V270 9999 FEW030 SCT100 28/22 Q1011 NOSIG RMK A2988

SEGU Flight Activity (Flightaware)

Listeners: 0 out of 925 total

Guayaquil Ground: 121.900
Guayaquil Tower: 118.300

SEGU Gnd/Twr/App (Archives)
Guayaquil, Ecuador

Feed Status: UP
Listen in your browser - HTML5 player(in browser, HTML5)
Click here to listen with your own player(launches your MP3 player)

SEGU 210300Z 23009KT 210V270 9999 FEW030 SCT100 28/22 Q1011 NOSIG RMK A2988

SEGU Flight Activity (Flightaware)

Listeners: 0 out of 925 total

Guayaquil Approach: 120.700
Guayaquil Ground: 121.900
Guayaquil Tower: 118.300

SEGU Guayaquil Center (Archives)
Guayaquil, Ecuador

Feed Status: UP
Listen in your browser - HTML5 player(in browser, HTML5)
Click here to listen with your own player(launches your MP3 player)

SEGU 210300Z 23009KT 210V270 9999 FEW030 SCT100 28/22 Q1011 NOSIG RMK A2988

SEGU Flight Activity (Flightaware)

Listeners: 3 out of 925 total

Guayaquil Center: 127.950
Guayaquil Center: 128.300

SEQM ATIS (Archives)
Quito, Ecuador

Feed Status: UP
Listen in your browser - HTML5 player(in browser, HTML5)
Click here to listen with your own player(launches your MP3 player)

SEQM 210300Z 01005KT 8000 BCFG OVC003 14/13 Q1028 NOSIG RMK A3037

SEQM Flight Activity (Flightaware)

Listeners: 0 out of 925 total

Quito ATIS: 118.700

SEQM Gnd/Twr/App (Archives)
Quito, Ecuador

Feed Status: UP
Listen in your browser - HTML5 player(in browser, HTML5)
Click here to listen with your own player(launches your MP3 player)

SEQM 210300Z 01005KT 8000 BCFG OVC003 14/13 Q1028 NOSIG RMK A3037

SEQM Flight Activity (Flightaware)

Listeners: 0 out of 925 total

Quito Approach/Departure: 119.700
Quito Approach/Departure: 121.200
Quito Ground: 121.900
Quito Tower: 118.100
Quito Tower (Secondary): 118.350

SEQM Tower (Archives)
Quito, Ecuador

Feed Status: UP
Listen in your browser - HTML5 player(in browser, HTML5)
Click here to listen with your own player(launches your MP3 player)

SEQM 210300Z 01005KT 8000 BCFG OVC003 14/13 Q1028 NOSIG RMK A3037

SEQM Flight Activity (Flightaware)

Listeners: 0 out of 925 total

Quito Tower: 118.100
Quito Tower (Secondary): 118.350

SGAS Gnd/Twr/App/Center
Asuncion, Paraguay

Feed Status: DOWN
Offline since: 2019-04-15 20:25:04 UTC

SGAS 210300Z 11008KT 070V150 9999 VCTS SCT033 FEW040CB BKN080 25/22 Q1009

Asuncion Approach: 119.700
Asuncion Control: 126.900
Asuncion Ground: 121.900
Asuncion Tower: 118.100

SKBO Del/Gnd/Twr/App
Bogota, Colombia

Feed Status: DOWN
Offline since: 2019-04-09 23:39:02 UTC

SKBO 210300Z 32004KT 9000 VCSH SCT005 BKN012 14/12 A3038

Bogota Approach: 119.500
Bogota Clearance Delivery: 121.600
Bogota Departure (North): 121.300
Bogota Departure (South): 119.650
Bogota Ground (North): 121.800
Bogota Ground (South): 122.750
Bogota Information: 126.900
Bogota Tower (North): 118.100
Bogota Tower (South): 118.250
Guaymaral Ground: 121.700
Guaymaral Tower: 118.800

SKBQ Approach (Archives)
Barranquilla, Colombia

Feed Status: UP
Listen in your browser - HTML5 player(in browser, HTML5)
Click here to listen with your own player(launches your MP3 player)

SKBQ 210300Z 02006KT 9999 SCT012 26/24 A2990

SKBQ Flight Activity (Flightaware)

Listeners: 0 out of 925 total

Barranquilla Approach/Departure: 119.100

SKBQ Gnd/Twr (Archives)
Barranquilla, Colombia

Feed Status: UP
Listen in your browser - HTML5 player(in browser, HTML5)
Click here to listen with your own player(launches your MP3 player)

SKBQ 210300Z 02006KT 9999 SCT012 26/24 A2990

SKBQ Flight Activity (Flightaware)

Listeners: 0 out of 925 total

Barranquilla Ground: 121.900
Barranquilla Tower: 118.450
Barranquilla Tower: 118.100

SPJC Approach (Archives)
Lima, Peru

Feed Status: UP
Listen in your browser - HTML5 player(in browser, HTML5)
Click here to listen with your own player(launches your MP3 player)

SPJC 210300Z 20002KT CAVOK 21/19 Q1014 NOSIG RMK PP000

SPJC Flight Activity (Flightaware)

Listeners: 1 out of 925 total

Lima Approach: 119.700

SPJC Ground (Archives)
Lima, Peru

Feed Status: UP
Listen in your browser - HTML5 player(in browser, HTML5)
Click here to listen with your own player(launches your MP3 player)

SPJC 210300Z 20002KT CAVOK 21/19 Q1014 NOSIG RMK PP000

SPJC Flight Activity (Flightaware)

Listeners: 0 out of 925 total

Lima Ground: 121.900

SPJC Tower (Archives)
Lima, Peru

Feed Status: UP
Listen in your browser - HTML5 player(in browser, HTML5)
Click here to listen with your own player(launches your MP3 player)

SPJC 210300Z 20002KT CAVOK 21/19 Q1014 NOSIG RMK PP000

SPJC Flight Activity (Flightaware)

Listeners: 0 out of 925 total

Lima Tower: 118.100

SPST Tower (Archives)
Tarapoto, Peru

Feed Status: UP
Listen in your browser - HTML5 player(in browser, HTML5)
Click here to listen with your own player(launches your MP3 player)

SPST 210300Z 10003KT 3000 BR BKN010 23/23 Q1013 RMK BIRD HAZARD RWY 17/35 PP000

SPST Flight Activity (Flightaware)

Listeners: 2 out of 925 total

Tarapoto Tower: 118.400

SSBL Air to Air (Archives)
Blumenau, Brazil

Feed Status: UP
Listen in your browser - HTML5 player(in browser, HTML5)
Click here to listen with your own player(launches your MP3 player)

METAR NOT AVAILABLE

SSBL Flight Activity (Flightaware)

Listeners: 0 out of 925 total

Air to Air: 123.450

SUMU Twr/App (Archives)
Montevideo, Uruguay

Feed Status: UP
Listen in your browser - HTML5 player(in browser, HTML5)
Click here to listen with your own player(launches your MP3 player)

SUMU 210300Z 19008KT 9999 FEW030 BKN070 16/08 Q1015 NOSIG

SUMU Flight Activity (Flightaware)

Listeners: 0 out of 925 total

SUMU Approach: 119.200
SUMU Tower: 118.100

Sponsored by Aeroclub Aerosur - Escuela de Vuelo

SUMU Twr/App/Radar (Archives)
Montevideo, Uruguay

Feed Status: UP
Listen in your browser - HTML5 player(in browser, HTML5)
Click here to listen with your own player(launches your MP3 player)

SUMU 210300Z 19008KT 9999 FEW030 BKN070 16/08 Q1015 NOSIG

SUMU Flight Activity (Flightaware)

Listeners: 0 out of 925 total

SUMU Approach: 120.200
SUMU Approach: 119.200
SUMU Info: 121.800
SUMU Informacion: 121.800
SUMU Radar Control: 128.500
SUMU Radar Control: 126.300
SUMU Radar Control: 128.000
SUMU Tower: 118.100

Feed provided by:

Volemos.com.uy

Aviación Uruguaya - Volemos.com.uy

SUPU/SUPC Misc (Archives)
Paysandu, Uruguay

Feed Status: UP
Listen in your browser - HTML5 player(in browser, HTML5)
Click here to listen with your own player(launches your MP3 player)

SUPU 040900Z 10005KT 9999 FEW020TCU BKN070 FEW200 23/23 Q1010

SUPU Flight Activity (Flightaware)

Listeners: 0 out of 925 total

Chalkling Tower: 118.700
Paysandu Tower: 118.200

Courtesy of: Aeroclub Paysandu

SVZM FIR #1
Maiquetia, Venezuela

Feed Status: DOWN
Offline since: 2019-02-20 23:41:02 UTC

SVMI 210300Z 11004KT 9999 SCT016 25/22 Q1012

Maiquetia Center (North/Centra/Coastal): 128.500
Maiquetia Center (South/Central): 127.950
Maiquetia Center (Southeast): 128.700

SVZM FIR #2
Maiquetia, Venezuela

Feed Status: DOWN
Offline since: 2019-02-20 23:41:02 UTC

SVMI 210300Z 11004KT 9999 SCT016 25/22 Q1012

Maiquetia Center (Northeast): 125.200
Maiquetia Center (Northeast): 126.600
Maiquetia Center (Southeast): 126.000

SVPR Twr/App/FIR (Archives)
Ciudad Guayana, Venezuela

Feed Status: UP
Listen in your browser - HTML5 player(in browser, HTML5)
Click here to listen with your own player(launches your MP3 player)

SVPR Flight Activity (Flightaware)

Listeners: 0 out of 925 total

Emergency/Guard: 121.500
FIR 6: 126.000
Guayana Approach (Primary): 119.500
Guayana Approach (Secondary): 120.300
Guayana Tower (Primary): 118.000
Guayana Tower (Secondary): 123.500
SMC: 121.900

SVVA Gnd/Twr/App
Valencia, Venezuela

Feed Status: DOWN
Offline since: 2019-04-20 23:17:03 UTC

SVVA 171503Z ///// 9999 FEW020 29/20 Q1018

Libertador Approach: 119.300
Valencia Ground: 121.900
Valencia Tower: 121.200

TNCA Twr/Apron/FIR (Archives)
Oranjestad, Aruba

Feed Status: UP
Listen in your browser - HTML5 player(in browser, HTML5)
Click here to listen with your own player(launches your MP3 player)

TNCA 210300Z 09018KT 9999 SCT018 27/23 Q1014 NOSIG

TNCA Flight Activity (Flightaware)

Listeners: 0 out of 925 total

Beatrix Ground (Apron): 121.600
Beatrix Tower: 120.900
Beatrix Tower (secondary): 118.000
Curacao Control: 127.100
Emergency/Guard: 121.500
Search/Rescue: 123.100

NOTES: OurAirports.com

TNCB Tower (Archives)
Kralendijk, Bonaire

Feed Status: UP
Listen in your browser - HTML5 player(in browser, HTML5)
Click here to listen with your own player(launches your MP3 player)

TNCB 210155Z AUTO 08016KT 9999 FEW001/// 27/23 Q1014

TNCB Flight Activity (Flightaware)

Listeners: 1 out of 925 total

Bonaire Tower: 118.700

TNCC Curacao Control (Archives)
Willemstad, Curacao

Feed Status: UP
Listen in your browser - HTML5 player(in browser, HTML5)
Click here to listen with your own player(launches your MP3 player)

TNCC 210200Z AUTO 10015KT 9999 SCT018 27/23 Q1014

TNCC Flight Activity (Flightaware)

Listeners: 0 out of 925 total

Curacao Control: 124.100
Curacao Control: 127.100

TNCC Tower/Radar (Archives)
Willemstad, Curacao

Feed Status: UP
Listen in your browser - HTML5 player(in browser, HTML5)
Click here to listen with your own player(launches your MP3 player)

TNCC 210200Z AUTO 10015KT 9999 SCT018 27/23 Q1014

TNCC Flight Activity (Flightaware)

Listeners: 0 out of 925 total

Hato Radar: 119.600
Hato Tower: 118.300

TNCC Twr/Radar/Control (Archives)
Willemstad, Curacao

Feed Status: UP
Listen in your browser - HTML5 player(in browser, HTML5)
Click here to listen with your own player(launches your MP3 player)

TNCC 210200Z AUTO 10015KT 9999 SCT018 27/23 Q1014

TNCC Flight Activity (Flightaware)

Listeners: 2 out of 925 total

Curacao Control: 127.100
Hato Radar: 119.600
Hato Tower: 118.300

TNCE Info (Archives)
Oranjestad, Sint Eustatius

Feed Status: UP
Listen in your browser - HTML5 player(in browser, HTML5)
Click here to listen with your own player(launches your MP3 player)

TNCE 210155Z AUTO 07013KT 050V110 //// // ///////// 25/21 Q1018 RE//

TNCE Flight Activity (Flightaware)

Listeners: 0 out of 925 total

Statia Info: 118.100

TTCP Gnd/Twr/App (Archives)
Scarborough, Trinidad and Tobago

Feed Status: UP
Listen in your browser - HTML5 player(in browser, HTML5)
Click here to listen with your own player(launches your MP3 player)

TTCP 210200Z 10009KT 9999 FEW018 27/21 Q1014 NOSIG

TTCP Flight Activity (Flightaware)

Listeners: 0 out of 925 total

Piarco Approach: 119.000
Robinson Ground: 121.700
Robinson Tower: 118.400

TTPP Apron/Gnd/Twr (Archives)
Port of Spain, Trinidad and Tobago

Feed Status: UP
Listen in your browser - HTML5 player(in browser, HTML5)
Click here to listen with your own player(launches your MP3 player)

TTPP 210200Z 13003KT 9999 FEW018 BKN042 26/23 Q1014 NOSIG

TTPP Flight Activity (Flightaware)

Listeners: 2 out of 925 total

Piarco Apron: 121.750
Piarco Ground: 121.900
Piarco Tower: 118.100

TTPP Piarco Approach (Archives)
Port of Spain, Trinidad and Tobago

Feed Status: UP
Listen in your browser - HTML5 player(in browser, HTML5)
Click here to listen with your own player(launches your MP3 player)

TTPP 210200Z 13003KT 9999 FEW018 BKN042 26/23 Q1014 NOSIG

TTPP Flight Activity (Flightaware)

Listeners: 1 out of 925 total

Piarco Approach: 119.550
Piarco Approach: 119.000
Piarco Approach (backup): 124.000

TTPP Piarco Center (Archives)
Port of Spain, Trinidad and Tobago

Feed Status: UP
Listen in your browser - HTML5 player(in browser, HTML5)
Click here to listen with your own player(launches your MP3 player)

TTPP 210200Z 13003KT 9999 FEW018 BKN042 26/23 Q1014 NOSIG

TTPP Flight Activity (Flightaware)

Listeners: 2 out of 925 total

Piarco Center: 123.700
Piarco Center (Oceanic): 126.500
Piarco Center (South Sector): 125.400
Piarco Center Oceanic (Backup): 133.100